sensor_id;sensor_type;location;lat;lon;timestamp;pressure;altitude;pressure_sealevel;temperature;humidity
73860;BME280;62197;51.632;13.700;2023-08-21T00:01:36;100819.53;;;22.54;100.00
73860;BME280;62197;51.632;13.700;2023-08-21T00:04:01;100808.59;;;22.39;100.00
73860;BME280;62197;51.632;13.700;2023-08-21T00:06:26;100804.09;;;22.38;100.00
73860;BME280;62197;51.632;13.700;2023-08-21T00:08:52;100793.38;;;22.40;100.00
73860;BME280;62197;51.632;13.700;2023-08-21T00:11:17;100794.94;;;22.46;100.00
73860;BME280;62197;51.632;13.700;2023-08-21T00:13:42;100796.09;;;22.45;100.00
73860;BME280;62197;51.632;13.700;2023-08-21T00:16:10;100788.28;;;22.42;100.00
73860;BME280;62197;51.632;13.700;2023-08-21T00:18:36;100784.09;;;22.53;100.00
73860;BME280;62197;51.632;13.700;2023-08-21T00:21:01;100791.75;;;22.66;100.00
73860;BME280;62197;51.632;13.700;2023-08-21T00:23:27;100793.91;;;22.42;100.00
73860;BME280;62197;51.632;13.700;2023-08-21T00:25:52;100784.53;;;22.33;100.00
73860;BME280;62197;51.632;13.700;2023-08-21T00:28:17;100795.16;;;22.36;100.00
73860;BME280;62197;51.632;13.700;2023-08-21T00:30:43;100790.88;;;22.38;100.00
73860;BME280;62197;51.632;13.700;2023-08-21T00:33:08;100796.31;;;22.49;100.00
73860;BME280;62197;51.632;13.700;2023-08-21T00:35:33;100787.16;;;22.43;100.00
73860;BME280;62197;51.632;13.700;2023-08-21T00:37:59;100787.34;;;22.33;100.00
73860;BME280;62197;51.632;13.700;2023-08-21T00:40:24;100777.47;;;22.22;100.00
73860;BME280;62197;51.632;13.700;2023-08-21T00:42:49;100765.69;;;22.47;100.00
73860;BME280;62197;51.632;13.700;2023-08-21T00:45:15;100774.75;;;22.44;100.00
73860;BME280;62197;51.632;13.700;2023-08-21T00:47:42;100779.09;;;22.23;100.00
73860;BME280;62197;51.632;13.700;2023-08-21T00:50:08;100781.41;;;22.21;100.00
73860;BME280;62197;51.632;13.700;2023-08-21T00:52:34;100777.44;;;22.08;100.00
73860;BME280;62197;51.632;13.700;2023-08-21T00:55:00;100786.31;;;22.29;100.00
73860;BME280;62197;51.632;13.700;2023-08-21T00:57:26;100778.06;;;22.19;100.00
73860;BME280;62197;51.632;13.700;2023-08-21T00:59:51;100784.94;;;22.26;100.00
73860;BME280;62197;51.632;13.700;2023-08-21T01:02:17;100786.59;;;22.14;100.00
73860;BME280;62197;51.632;13.700;2023-08-21T01:04:44;100794.69;;;22.02;100.00
73860;BME280;62197;51.632;13.700;2023-08-21T01:07:09;100782.94;;;22.00;100.00
73860;BME280;62197;51.632;13.700;2023-08-21T01:15:08;100796.81;;;22.10;100.00
73860;BME280;62197;51.632;13.700;2023-08-21T01:17:36;100793.47;;;22.08;100.00
73860;BME280;62197;51.632;13.700;2023-08-21T01:20:03;100790.44;;;22.04;100.00
73860;BME280;62197;51.632;13.700;2023-08-21T01:22:36;100798.03;;;22.04;100.00
73860;BME280;62197;51.632;13.700;2023-08-21T01:25:02;100789.72;;;21.99;100.00
73860;BME280;62197;51.632;13.700;2023-08-21T01:27:27;100782.00;;;21.91;100.00
73860;BME280;62197;51.632;13.700;2023-08-21T01:29:53;100789.03;;;21.88;100.00
73860;BME280;62197;51.632;13.700;2023-08-21T01:32:35;100796.22;;;21.81;100.00
73860;BME280;62197;51.632;13.700;2023-08-21T01:35:02;100793.16;;;21.77;100.00
73860;BME280;62197;51.632;13.700;2023-08-21T01:37:29;100792.84;;;21.79;100.00
73860;BME280;62197;51.632;13.700;2023-08-21T01:39:58;100801.53;;;21.82;100.00
73860;BME280;62197;51.632;13.700;2023-08-21T01:42:23;100803.50;;;21.63;100.00
73860;BME280;62197;51.632;13.700;2023-08-21T01:44:48;100799.69;;;21.73;100.00
73860;BME280;62197;51.632;13.700;2023-08-21T01:47:14;100799.44;;;21.88;100.00
73860;BME280;62197;51.632;13.700;2023-08-21T01:49:39;100797.88;;;21.63;100.00
73860;BME280;62197;51.632;13.700;2023-08-21T01:52:04;100800.13;;;21.47;100.00
73860;BME280;62197;51.632;13.700;2023-08-21T01:54:30;100790.09;;;21.41;100.00
73860;BME280;62197;51.632;13.700;2023-08-21T01:56:55;100792.63;;;21.24;100.00
73860;BME280;62197;51.632;13.700;2023-08-21T01:59:21;100797.84;;;21.12;100.00
73860;BME280;62197;51.632;13.700;2023-08-21T02:01:46;100795.22;;;21.21;100.00
73860;BME280;62197;51.632;13.700;2023-08-21T02:04:12;100797.22;;;21.52;100.00
73860;BME280;62197;51.632;13.700;2023-08-21T02:06:37;100802.50;;;21.40;100.00
73860;BME280;62197;51.632;13.700;2023-08-21T02:09:02;100807.63;;;21.33;100.00
73860;BME280;62197;51.632;13.700;2023-08-21T02:11:28;100809.63;;;21.14;100.00
73860;BME280;62197;51.632;13.700;2023-08-21T02:13:53;100815.38;;;21.04;100.00
73860;BME280;62197;51.632;13.700;2023-08-21T02:16:18;100815.75;;;21.16;100.00
73860;BME280;62197;51.632;13.700;2023-08-21T02:18:45;100801.81;;;21.48;100.00
73860;BME280;62197;51.632;13.700;2023-08-21T02:21:10;100803.72;;;21.34;100.00
73860;BME280;62197;51.632;13.700;2023-08-21T02:23:36;100799.63;;;21.27;100.00
73860;BME280;62197;51.632;13.700;2023-08-21T02:26:01;100804.38;;;21.26;100.00
73860;BME280;62197;51.632;13.700;2023-08-21T02:28:26;100799.31;;;21.28;100.00
73860;BME280;62197;51.632;13.700;2023-08-21T02:30:52;100806.56;;;21.29;100.00
73860;BME280;62197;51.632;13.700;2023-08-21T02:33:17;100816.16;;;21.28;100.00
73860;BME280;62197;51.632;13.700;2023-08-21T02:35:42;100813.72;;;21.22;100.00
73860;BME280;62197;51.632;13.700;2023-08-21T02:38:08;100816.38;;;21.13;100.00
73860;BME280;62197;51.632;13.700;2023-08-21T02:40:33;100816.25;;;21.23;100.00
73860;BME280;62197;51.632;13.700;2023-08-21T02:42:58;100809.75;;;21.04;100.00
73860;BME280;62197;51.632;13.700;2023-08-21T02:45:24;100801.69;;;20.98;100.00
73860;BME280;62197;51.632;13.700;2023-08-21T02:47:49;100802.47;;;20.85;100.00
73860;BME280;62197;51.632;13.700;2023-08-21T02:50:15;100802.69;;;20.88;100.00
73860;BME280;62197;51.632;13.700;2023-08-21T02:52:40;100807.22;;;20.84;100.00
73860;BME280;62197;51.632;13.700;2023-08-21T02:55:05;100803.66;;;20.79;100.00
73860;BME280;62197;51.632;13.700;2023-08-21T02:57:31;100792.97;;;20.81;100.00
73860;BME280;62197;51.632;13.700;2023-08-21T02:59:56;100798.84;;;20.79;100.00
73860;BME280;62197;51.632;13.700;2023-08-21T03:02:22;100800.84;;;20.97;100.00
73860;BME280;62197;51.632;13.700;2023-08-21T03:04:48;100798.31;;;21.01;100.00
73860;BME280;62197;51.632;13.700;2023-08-21T03:07:14;100807.81;;;20.81;100.00
73860;BME280;62197;51.632;13.700;2023-08-21T03:09:40;100805.31;;;21.03;100.00
73860;BME280;62197;51.632;13.700;2023-08-21T03:12:06;100802.91;;;20.92;100.00
73860;BME280;62197;51.632;13.700;2023-08-21T03:14:31;100805.66;;;20.73;100.00
73860;BME280;62197;51.632;13.700;2023-08-21T03:16:57;100791.25;;;20.61;100.00
73860;BME280;62197;51.632;13.700;2023-08-21T03:19:22;100796.69;;;20.95;100.00
73860;BME280;62197;51.632;13.700;2023-08-21T03:21:48;100789.44;;;20.70;100.00
73860;BME280;62197;51.632;13.700;2023-08-21T03:24:13;100800.75;;;20.41;100.00
73860;BME280;62197;51.632;13.700;2023-08-21T03:26:38;100802.66;;;20.22;100.00
73860;BME280;62197;51.632;13.700;2023-08-21T03:29:04;100808.41;;;20.07;100.00
73860;BME280;62197;51.632;13.700;2023-08-21T03:31:29;100803.16;;;20.01;100.00
73860;BME280;62197;51.632;13.700;2023-08-21T03:33:55;100810.59;;;20.39;100.00
73860;BME280;62197;51.632;13.700;2023-08-21T03:36:20;100811.44;;;20.63;100.00
73860;BME280;62197;51.632;13.700;2023-08-21T03:38:46;100807.69;;;20.91;100.00
73860;BME280;62197;51.632;13.700;2023-08-21T03:41:11;100812.84;;;20.60;100.00
73860;BME280;62197;51.632;13.700;2023-08-21T03:43:37;100819.50;;;20.17;100.00
73860;BME280;62197;51.632;13.700;2023-08-21T03:46:02;100821.13;;;19.95;100.00
73860;BME280;62197;51.632;13.700;2023-08-21T03:48:28;100829.31;;;20.20;100.00
73860;BME280;62197;51.632;13.700;2023-08-21T03:50:53;100823.41;;;20.45;100.00
73860;BME280;62197;51.632;13.700;2023-08-21T03:53:18;100818.69;;;20.64;100.00
73860;BME280;62197;51.632;13.700;2023-08-21T03:55:44;100823.19;;;20.65;100.00
73860;BME280;62197;51.632;13.700;2023-08-21T03:58:09;100826.25;;;20.63;100.00
73860;BME280;62197;51.632;13.700;2023-08-21T04:00:35;100830.72;;;20.46;100.00
73860;BME280;62197;51.632;13.700;2023-08-21T04:03:00;100828.81;;;20.13;100.00
73860;BME280;62197;51.632;13.700;2023-08-21T04:05:25;100827.34;;;19.92;100.00
73860;BME280;62197;51.632;13.700;2023-08-21T04:07:51;100830.75;;;20.41;100.00
73860;BME280;62197;51.632;13.700;2023-08-21T04:10:16;100824.06;;;20.37;100.00
73860;BME280;62197;51.632;13.700;2023-08-21T04:12:42;100835.16;;;20.47;100.00
73860;BME280;62197;51.632;13.700;2023-08-21T04:15:08;100827.84;;;20.93;100.00
73860;BME280;62197;51.632;13.700;2023-08-21T04:17:33;100831.19;;;20.95;100.00
73860;BME280;62197;51.632;13.700;2023-08-21T04:19:58;100839.69;;;20.90;100.00
73860;BME280;62197;51.632;13.700;2023-08-21T04:22:24;100836.94;;;20.85;100.00
73860;BME280;62197;51.632;13.700;2023-08-21T04:24:49;100840.47;;;20.72;100.00
73860;BME280;62197;51.632;13.700;2023-08-21T04:27:15;100838.44;;;20.54;100.00
73860;BME280;62197;51.632;13.700;2023-08-21T04:29:40;100835.16;;;20.71;100.00
73860;BME280;62197;51.632;13.700;2023-08-21T04:32:06;100836.69;;;21.05;100.00
73860;BME280;62197;51.632;13.700;2023-08-21T04:34:34;100843.44;;;21.04;100.00
73860;BME280;62197;51.632;13.700;2023-08-21T04:37:00;100838.00;;;21.13;100.00
73860;BME280;62197;51.632;13.700;2023-08-21T04:39:26;100841.94;;;21.30;100.00
73860;BME280;62197;51.632;13.700;2023-08-21T04:41:51;100845.28;;;21.51;100.00
73860;BME280;62197;51.632;13.700;2023-08-21T04:44:17;100842.75;;;21.12;100.00
73860;BME280;62197;51.632;13.700;2023-08-21T04:46:42;100851.63;;;20.77;100.00
73860;BME280;62197;51.632;13.700;2023-08-21T04:49:07;100847.13;;;20.57;100.00
73860;BME280;62197;51.632;13.700;2023-08-21T04:51:34;100853.06;;;20.75;100.00
73860;BME280;62197;51.632;13.700;2023-08-21T04:53:59;100841.47;;;20.81;100.00
73860;BME280;62197;51.632;13.700;2023-08-21T04:56:25;100844.38;;;20.95;100.00
73860;BME280;62197;51.632;13.700;2023-08-21T04:58:51;100842.78;;;20.89;100.00
73860;BME280;62197;51.632;13.700;2023-08-21T05:01:16;100842.31;;;20.82;100.00
73860;BME280;62197;51.632;13.700;2023-08-21T05:03:42;100839.63;;;20.72;100.00
73860;BME280;62197;51.632;13.700;2023-08-21T05:06:07;100848.88;;;20.96;100.00
73860;BME280;62197;51.632;13.700;2023-08-21T05:08:33;100841.09;;;21.30;100.00
73860;BME280;62197;51.632;13.700;2023-08-21T05:10:59;100843.16;;;21.43;100.00
73860;BME280;62197;51.632;13.700;2023-08-21T05:13:25;100848.47;;;21.44;100.00
73860;BME280;62197;51.632;13.700;2023-08-21T05:15:57;100856.44;;;21.56;100.00
73860;BME280;62197;51.632;13.700;2023-08-21T05:18:24;100855.22;;;21.81;100.00
73860;BME280;62197;51.632;13.700;2023-08-21T05:20:50;100861.47;;;21.91;100.00
73860;BME280;62197;51.632;13.700;2023-08-21T05:23:16;100872.16;;;22.08;100.00
73860;BME280;62197;51.632;13.700;2023-08-21T05:25:43;100863.47;;;21.91;100.00
73860;BME280;62197;51.632;13.700;2023-08-21T05:28:09;100867.78;;;22.02;100.00
73860;BME280;62197;51.632;13.700;2023-08-21T05:30:35;100877.25;;;22.06;100.00
73860;BME280;62197;51.632;13.700;2023-08-21T05:33:01;100866.44;;;22.13;100.00
73860;BME280;62197;51.632;13.700;2023-08-21T05:35:26;100871.06;;;22.22;100.00
73860;BME280;62197;51.632;13.700;2023-08-21T05:37:52;100876.31;;;22.42;100.00
73860;BME280;62197;51.632;13.700;2023-08-21T05:40:17;100871.31;;;22.53;100.00
73860;BME280;62197;51.632;13.700;2023-08-21T05:42:42;100878.34;;;22.69;100.00
73860;BME280;62197;51.632;13.700;2023-08-21T05:45:08;100867.53;;;22.76;100.00
73860;BME280;62197;51.632;13.700;2023-08-21T05:47:33;100858.56;;;22.74;100.00
73860;BME280;62197;51.632;13.700;2023-08-21T05:49:59;100872.19;;;22.94;100.00
73860;BME280;62197;51.632;13.700;2023-08-21T05:52:24;100855.09;;;23.04;100.00
73860;BME280;62197;51.632;13.700;2023-08-21T05:54:50;100868.50;;;23.07;100.00
73860;BME280;62197;51.632;13.700;2023-08-21T05:57:15;100854.22;;;23.17;100.00
73860;BME280;62197;51.632;13.700;2023-08-21T05:59:47;100859.34;;;23.15;100.00
73860;BME280;62197;51.632;13.700;2023-08-21T06:02:15;100858.06;;;23.21;100.00
73860;BME280;62197;51.632;13.700;2023-08-21T06:04:41;100861.00;;;23.16;100.00
73860;BME280;62197;51.632;13.700;2023-08-21T06:07:07;100866.22;;;23.09;100.00
73860;BME280;62197;51.632;13.700;2023-08-21T06:09:32;100861.63;;;23.13;100.00
73860;BME280;62197;51.632;13.700;2023-08-21T06:12:02;100866.66;;;23.16;100.00
73860;BME280;62197;51.632;13.700;2023-08-21T06:14:27;100867.78;;;23.15;100.00
73860;BME280;62197;51.632;13.700;2023-08-21T06:16:57;100868.50;;;23.21;100.00
73860;BME280;62197;51.632;13.700;2023-08-21T06:19:22;100860.78;;;23.40;100.00
73860;BME280;62197;51.632;13.700;2023-08-21T06:21:47;100867.16;;;23.68;100.00
73860;BME280;62197;51.632;13.700;2023-08-21T06:24:13;100863.50;;;23.89;100.00
73860;BME280;62197;51.632;13.700;2023-08-21T06:26:38;100856.78;;;23.99;100.00
73860;BME280;62197;51.632;13.700;2023-08-21T06:29:03;100857.31;;;24.23;100.00
73860;BME280;62197;51.632;13.700;2023-08-21T06:31:29;100864.75;;;24.19;100.00
73860;BME280;62197;51.632;13.700;2023-08-21T06:33:54;100864.66;;;24.33;100.00
73860;BME280;62197;51.632;13.700;2023-08-21T06:36:20;100866.50;;;24.37;100.00
73860;BME280;62197;51.632;13.700;2023-08-21T06:38:45;100867.31;;;24.29;100.00
73860;BME280;62197;51.632;13.700;2023-08-21T06:41:10;100859.88;;;24.42;100.00
73860;BME280;62197;51.632;13.700;2023-08-21T06:43:36;100867.56;;;24.50;100.00
73860;BME280;62197;51.632;13.700;2023-08-21T06:46:01;100868.41;;;24.50;100.00
73860;BME280;62197;51.632;13.700;2023-08-21T06:48:26;100864.56;;;24.46;100.00
73860;BME280;62197;51.632;13.700;2023-08-21T06:50:52;100862.94;;;24.54;100.00
73860;BME280;62197;51.632;13.700;2023-08-21T06:53:17;100864.22;;;24.78;100.00
73860;BME280;62197;51.632;13.700;2023-08-21T06:55:44;100866.25;;;24.86;100.00
73860;BME280;62197;51.632;13.700;2023-08-21T06:58:10;100864.31;;;25.13;100.00
73860;BME280;62197;51.632;13.700;2023-08-21T07:00:36;100864.06;;;25.40;100.00
73860;BME280;62197;51.632;13.700;2023-08-21T07:03:01;100861.13;;;25.62;100.00
73860;BME280;62197;51.632;13.700;2023-08-21T07:05:28;100853.31;;;25.76;100.00
73860;BME280;62197;51.632;13.700;2023-08-21T07:07:53;100856.13;;;25.76;100.00
73860;BME280;62197;51.632;13.700;2023-08-21T07:10:20;100859.94;;;25.88;100.00
73860;BME280;62197;51.632;13.700;2023-08-21T07:12:45;100854.78;;;25.82;100.00
73860;BME280;62197;51.632;13.700;2023-08-21T07:15:11;100863.75;;;25.67;100.00
73860;BME280;62197;51.632;13.700;2023-08-21T07:17:36;100871.94;;;25.68;100.00
73860;BME280;62197;51.632;13.700;2023-08-21T07:20:02;100866.59;;;25.67;100.00
73860;BME280;62197;51.632;13.700;2023-08-21T07:22:29;100862.63;;;25.68;100.00
73860;BME280;62197;51.632;13.700;2023-08-21T07:24:54;100864.44;;;25.89;100.00
73860;BME280;62197;51.632;13.700;2023-08-21T07:27:19;100865.25;;;25.90;100.00
73860;BME280;62197;51.632;13.700;2023-08-21T07:29:45;100861.63;;;25.89;100.00
73860;BME280;62197;51.632;13.700;2023-08-21T07:32:10;100855.13;;;26.06;100.00
73860;BME280;62197;51.632;13.700;2023-08-21T07:34:35;100860.72;;;26.32;100.00
73860;BME280;62197;51.632;13.700;2023-08-21T07:37:01;100854.06;;;26.36;100.00
73860;BME280;62197;51.632;13.700;2023-08-21T07:39:26;100859.53;;;26.41;100.00
73860;BME280;62197;51.632;13.700;2023-08-21T07:41:51;100868.09;;;26.62;100.00
73860;BME280;62197;51.632;13.700;2023-08-21T07:44:18;100866.94;;;26.71;100.00
73860;BME280;62197;51.632;13.700;2023-08-21T07:46:44;100869.84;;;26.92;100.00
73860;BME280;62197;51.632;13.700;2023-08-21T07:49:09;100875.59;;;26.66;100.00
73860;BME280;62197;51.632;13.700;2023-08-21T07:51:35;100875.78;;;26.70;100.00
73860;BME280;62197;51.632;13.700;2023-08-21T07:54:01;100874.06;;;26.77;100.00
73860;BME280;62197;51.632;13.700;2023-08-21T07:56:26;100875.31;;;26.51;100.00
73860;BME280;62197;51.632;13.700;2023-08-21T07:58:52;100874.72;;;26.28;100.00
73860;BME280;62197;51.632;13.700;2023-08-21T08:01:17;100879.69;;;26.31;100.00
73860;BME280;62197;51.632;13.700;2023-08-21T08:03:42;100874.97;;;26.52;100.00
73860;BME280;62197;51.632;13.700;2023-08-21T08:06:08;100879.25;;;26.75;100.00
73860;BME280;62197;51.632;13.700;2023-08-21T08:08:33;100875.59;;;26.75;100.00
73860;BME280;62197;51.632;13.700;2023-08-21T08:11:02;100880.72;;;26.82;100.00
73860;BME280;62197;51.632;13.700;2023-08-21T08:13:29;100876.84;;;26.40;100.00
73860;BME280;62197;51.632;13.700;2023-08-21T08:15:54;100883.88;;;26.34;100.00
73860;BME280;62197;51.632;13.700;2023-08-21T08:18:20;100889.53;;;26.25;100.00
73860;BME280;62197;51.632;13.700;2023-08-21T08:20:45;100889.72;;;26.03;100.00
73860;BME280;62197;51.632;13.700;2023-08-21T08:23:10;100897.72;;;25.84;100.00
73860;BME280;62197;51.632;13.700;2023-08-21T08:25:36;100902.19;;;25.68;100.00
73860;BME280;62197;51.632;13.700;2023-08-21T08:28:01;100902.84;;;25.39;100.00
73860;BME280;62197;51.632;13.700;2023-08-21T08:30:27;100903.50;;;25.45;100.00
73860;BME280;62197;51.632;13.700;2023-08-21T08:32:52;100897.69;;;25.58;100.00
73860;BME280;62197;51.632;13.700;2023-08-21T08:35:18;100896.69;;;25.54;100.00
73860;BME280;62197;51.632;13.700;2023-08-21T08:37:43;100893.94;;;25.24;100.00
73860;BME280;62197;51.632;13.700;2023-08-21T08:40:10;100903.00;;;25.60;100.00
73860;BME280;62197;51.632;13.700;2023-08-21T08:42:36;100906.66;;;25.69;100.00
73860;BME280;62197;51.632;13.700;2023-08-21T08:45:02;100902.00;;;25.73;100.00
73860;BME280;62197;51.632;13.700;2023-08-21T08:47:31;100897.53;;;25.80;100.00
73860;BME280;62197;51.632;13.700;2023-08-21T08:49:58;100904.19;;;25.67;100.00
73860;BME280;62197;51.632;13.700;2023-08-21T08:52:26;100908.84;;;25.72;100.00
73860;BME280;62197;51.632;13.700;2023-08-21T08:54:52;100896.19;;;26.04;100.00
73860;BME280;62197;51.632;13.700;2023-08-21T08:57:18;100894.69;;;26.23;100.00
73860;BME280;62197;51.632;13.700;2023-08-21T08:59:43;100892.69;;;26.32;100.00
73860;BME280;62197;51.632;13.700;2023-08-21T09:02:08;100890.38;;;26.17;100.00
73860;BME280;62197;51.632;13.700;2023-08-21T09:04:34;100893.69;;;26.02;100.00
73860;BME280;62197;51.632;13.700;2023-08-21T09:07:07;100899.19;;;25.99;100.00
73860;BME280;62197;51.632;13.700;2023-08-21T09:09:39;100896.34;;;26.33;100.00
73860;BME280;62197;51.632;13.700;2023-08-21T09:12:12;100892.69;;;26.32;100.00
73860;BME280;62197;51.632;13.700;2023-08-21T09:14:39;100888.88;;;26.28;100.00
73860;BME280;62197;51.632;13.700;2023-08-21T09:17:05;100893.03;;;25.88;100.00
73860;BME280;62197;51.632;13.700;2023-08-21T09:19:31;100887.38;;;25.88;100.00
73860;BME280;62197;51.632;13.700;2023-08-21T09:21:56;100898.06;;;26.08;100.00
73860;BME280;62197;51.632;13.700;2023-08-21T09:24:22;100898.19;;;25.94;100.00
73860;BME280;62197;51.632;13.700;2023-08-21T09:26:49;100902.69;;;25.70;100.00
73860;BME280;62197;51.632;13.700;2023-08-21T09:29:14;100916.16;;;25.47;100.00
73860;BME280;62197;51.632;13.700;2023-08-21T09:31:39;100921.78;;;25.47;100.00
73860;BME280;62197;51.632;13.700;2023-08-21T09:34:05;100909.06;;;25.19;100.00
73860;BME280;62197;51.632;13.700;2023-08-21T09:36:31;100916.41;;;25.37;100.00
73860;BME280;62197;51.632;13.700;2023-08-21T09:38:57;100905.47;;;25.44;100.00
73860;BME280;62197;51.632;13.700;2023-08-21T09:41:23;100908.28;;;25.36;100.00
73860;BME280;62197;51.632;13.700;2023-08-21T09:43:49;100903.09;;;25.29;100.00
73860;BME280;62197;51.632;13.700;2023-08-21T09:46:24;100890.13;;;25.20;100.00
73860;BME280;62197;51.632;13.700;2023-08-21T09:48:51;100897.97;;;25.40;100.00
73860;BME280;62197;51.632;13.700;2023-08-21T09:51:17;100904.34;;;25.54;100.00
73860;BME280;62197;51.632;13.700;2023-08-21T09:53:42;100904.28;;;25.37;100.00
73860;BME280;62197;51.632;13.700;2023-08-21T09:56:08;100903.00;;;25.60;100.00
73860;BME280;62197;51.632;13.700;2023-08-21T09:58:37;100901.53;;;26.05;100.00
73860;BME280;62197;51.632;13.700;2023-08-21T10:01:07;100892.69;;;26.32;100.00
73860;BME280;62197;51.632;13.700;2023-08-21T10:03:40;100892.88;;;26.10;100.00
73860;BME280;62197;51.632;13.700;2023-08-21T10:06:08;100883.88;;;26.25;100.00
73860;BME280;62197;51.632;13.700;2023-08-21T10:08:39;100888.69;;;26.33;100.00
73860;BME280;62197;51.632;13.700;2023-08-21T10:11:07;100883.38;;;26.23;100.00
73860;BME280;62197;51.632;13.700;2023-08-21T10:13:33;100879.19;;;26.29;100.00
73860;BME280;62197;51.632;13.700;2023-08-21T10:16:00;100876.31;;;26.46;100.00
73860;BME280;62197;51.632;13.700;2023-08-21T10:18:33;100885.69;;;26.21;100.00
73860;BME280;62197;51.632;13.700;2023-08-21T10:21:15;100886.91;;;25.86;100.00
73860;BME280;62197;51.632;13.700;2023-08-21T10:23:42;100885.69;;;26.04;100.00
73860;BME280;62197;51.632;13.700;2023-08-21T10:26:09;100887.22;;;25.93;100.00
73860;BME280;62197;51.632;13.700;2023-08-21T10:28:49;100887.38;;;25.88;100.00
73860;BME280;62197;51.632;13.700;2023-08-21T10:31:41;100887.72;;;25.95;100.00
73860;BME280;62197;51.632;13.700;2023-08-21T10:34:10;100878.41;;;26.20;100.00
73860;BME280;62197;51.632;13.700;2023-08-21T10:39:25;100871.84;;;26.45;100.00
73860;BME280;62197;51.632;13.700;2023-08-21T10:41:58;100881.28;;;26.75;100.00
73860;BME280;62197;51.632;13.700;2023-08-21T10:44:48;100874.31;;;27.02;100.00
73860;BME280;62197;51.632;13.700;2023-08-21T10:47:32;100864.47;;;27.28;100.00
73860;BME280;62197;51.632;13.700;2023-08-21T10:50:05;100869.47;;;27.02;100.00
73860;BME280;62197;51.632;13.700;2023-08-21T10:52:40;100877.28;;;27.05;100.00
73860;BME280;62197;51.632;13.700;2023-08-21T10:55:07;100873.50;;;26.93;100.00
73860;BME280;62197;51.632;13.700;2023-08-21T10:57:35;100881.81;;;26.98;100.00
73860;BME280;62197;51.632;13.700;2023-08-21T11:00:03;100878.25;;;26.71;100.00
73860;BME280;62197;51.632;13.700;2023-08-21T11:02:30;100875.47;;;27.01;100.00
73860;BME280;62197;51.632;13.700;2023-08-21T11:04:56;100872.97;;;27.57;100.00
73860;BME280;62197;51.632;13.700;2023-08-21T11:07:21;100875.03;;;27.69;100.00
73860;BME280;62197;51.632;13.700;2023-08-21T11:09:48;100877.72;;;28.07;100.00
73860;BME280;62197;51.632;13.700;2023-08-21T11:12:15;100873.81;;;27.58;100.00
73860;BME280;62197;51.632;13.700;2023-08-21T11:14:41;100868.94;;;27.38;100.00
73860;BME280;62197;51.632;13.700;2023-08-21T11:17:07;100883.59;;;27.40;100.00
73860;BME280;62197;51.632;13.700;2023-08-21T11:19:34;100882.13;;;27.34;100.00
73860;BME280;62197;51.632;13.700;2023-08-21T11:22:00;100878.19;;;27.18;100.00
73860;BME280;62197;51.632;13.700;2023-08-21T11:24:43;100870.91;;;27.08;100.00
73860;BME280;62197;51.632;13.700;2023-08-21T11:27:09;100875.13;;;26.56;100.00
73860;BME280;62197;51.632;13.700;2023-08-21T11:29:43;100861.44;;;26.75;100.00
73860;BME280;62197;51.632;13.700;2023-08-21T11:32:19;100854.44;;;27.60;100.00
73860;BME280;62197;51.632;13.700;2023-08-21T11:37:13;100858.72;;;29.73;98.78
73860;BME280;62197;51.632;13.700;2023-08-21T11:39:41;100869.00;;;30.45;94.31
73860;BME280;62197;51.632;13.700;2023-08-21T11:42:09;100854.13;;;30.23;88.37
73860;BME280;62197;51.632;13.700;2023-08-21T11:47:09;100852.28;;;27.98;100.00
73860;BME280;62197;51.632;13.700;2023-08-21T11:49:42;100849.31;;;27.33;100.00
73860;BME280;62197;51.632;13.700;2023-08-21T11:52:08;100853.38;;;27.44;100.00
73860;BME280;62197;51.632;13.700;2023-08-21T11:54:35;100855.25;;;27.40;100.00
73860;BME280;62197;51.632;13.700;2023-08-21T11:57:04;100856.34;;;27.47;100.00
73860;BME280;62197;51.632;13.700;2023-08-21T11:59:30;100860.00;;;28.42;98.92
73860;BME280;62197;51.632;13.700;2023-08-21T12:01:55;100854.41;;;28.91;89.57
73860;BME280;62197;51.632;13.700;2023-08-21T12:04:21;100854.78;;;28.44;92.22
73860;BME280;62197;51.632;13.700;2023-08-21T12:06:46;100853.31;;;27.73;98.97
73860;BME280;62197;51.632;13.700;2023-08-21T12:09:12;100853.88;;;27.87;99.97
73860;BME280;62197;51.632;13.700;2023-08-21T12:11:37;100855.75;;;27.83;99.38
73860;BME280;62197;51.632;13.700;2023-08-21T12:14:05;100855.38;;;27.85;94.53
73860;BME280;62197;51.632;13.700;2023-08-21T12:16:31;100853.69;;;29.06;90.29
73860;BME280;62197;51.632;13.700;2023-08-21T12:18:56;100852.69;;;29.74;87.62
73860;BME280;62197;51.632;13.700;2023-08-21T12:21:23;100847.09;;;30.64;77.00
73860;BME280;62197;51.632;13.700;2023-08-21T12:23:48;100850.31;;;32.14;68.98
73860;BME280;62197;51.632;13.700;2023-08-21T12:26:14;100841.72;;;30.90;75.14
73860;BME280;62197;51.632;13.700;2023-08-21T12:28:46;100849.16;;;29.53;81.38
73860;BME280;62197;51.632;13.700;2023-08-21T12:31:11;100845.63;;;29.44;85.06
73860;BME280;62197;51.632;13.700;2023-08-21T12:33:36;100845.44;;;28.44;88.96
73860;BME280;62197;51.632;13.700;2023-08-21T12:36:02;100842.19;;;28.21;90.82
73860;BME280;62197;51.632;13.700;2023-08-21T12:38:28;100842.66;;;27.91;91.96
73860;BME280;62197;51.632;13.700;2023-08-21T12:40:54;100847.34;;;28.07;89.93